Time;durP1;ratioP1;P1;durP2;ratioP2;P2;SDS_P1;SDS_P2;PMS_P1;PMS_P2;Temp;Humidity;BMP_temperature;BMP_pressure;BME280_temperature;BME280_humidity;BME280_pressure;Samples;Min_cycle;Max_cycle;Signal;HPM_P1;HPM_P2
2022/10/31 00:01:16;;;;;;;11.23;6.95;;;;;;;9.06;100.00;96298.84;5032486;28;20037;-60
2022/10/31 00:03:41;;;;;;;9.35;6.43;;;;;;;9.09;100.00;96298.63;5027649;28;20499;-68
2022/10/31 00:06:06;;;;;;;12.20;6.97;;;;;;;9.11;100.00;96309.00;5032704;28;20037;-68
2022/10/31 00:08:32;;;;;;;8.20;7.20;;;;;;;9.07;100.00;96305.78;5032544;28;20029;-68
2022/10/31 00:10:57;;;;;;;12.32;7.20;;;;;;;9.09;100.00;96298.63;5031401;28;20029;-68
2022/10/31 00:13:23;;;;;;;14.05;7.05;;;;;;;9.10;100.00;96299.47;5033280;28;20023;-68
2022/10/31 00:15:48;;;;;;;12.77;6.93;;;;;;;9.11;100.00;96299.31;5031445;28;20029;-68
2022/10/31 00:18:13;;;;;;;13.63;6.65;;;;;;;9.08;100.00;96294.31;5031917;28;20454;-68
2022/10/31 00:20:39;;;;;;;11.20;6.65;;;;;;;9.06;100.00;96296.22;5031870;28;20029;-68
2022/10/31 00:23:05;;;;;;;14.55;7.72;;;;;;;9.04;100.00;96292.88;5033734;28;20027;-66
2022/10/31 00:25:35;;;;;;;14.27;7.10;;;;;;;9.05;100.00;96294.56;5031322;28;20083;-68
2022/10/31 00:28:01;;;;;;;8.25;6.88;;;;;;;9.02;100.00;96290.34;5031161;28;20095;-68
2022/10/31 00:30:26;;;;;;;9.07;6.63;;;;;;;8.98;100.00;96293.34;5030047;28;20522;-68
2022/10/31 00:32:51;;;;;;;12.30;7.00;;;;;;;8.98;100.00;96286.31;5032356;28;20108;-67
2022/10/31 00:35:17;;;;;;;13.98;7.03;;;;;;;8.98;100.00;96288.09;5030771;28;20025;-68
2022/10/31 00:37:42;;;;;;;14.43;7.35;;;;;;;8.95;100.00;96285.69;5027850;28;20025;-68
2022/10/31 00:40:08;;;;;;;13.55;6.78;;;;;;;8.94;100.00;96284.88;5031544;28;20021;-68
2022/10/31 00:42:34;;;;;;;11.30;6.32;;;;;;;8.94;100.00;96281.41;5031162;28;20059;-66
2022/10/31 00:44:59;;;;;;;10.60;6.70;;;;;;;8.97;100.00;96283.81;5030322;28;20675;-66
2022/10/31 00:47:24;;;;;;;10.68;6.95;;;;;;;8.99;100.00;96287.16;5031771;28;20021;-67
2022/10/31 00:49:50;;;;;;;9.77;6.60;;;;;;;8.96;100.00;96288.22;5030221;28;20021;-66
2022/10/31 00:52:15;;;;;;;13.02;6.65;;;;;;;8.94;100.00;96289.28;5032686;28;20505;-67
2022/10/31 00:54:40;;;;;;;11.25;7.72;;;;;;;8.93;100.00;96282.34;5031305;28;20087;-67
2022/10/31 00:57:06;;;;;;;9.15;7.55;;;;;;;8.94;100.00;96286.66;5030935;28;20124;-67
2022/10/31 00:59:31;;;;;;;14.68;7.47;;;;;;;8.94;100.00;96284.88;5030837;28;20056;-66
2022/10/31 01:01:56;;;;;;;13.32;7.47;;;;;;;8.94;100.00;96281.41;5031532;28;20068;-73
2022/10/31 01:04:22;;;;;;;11.13;6.70;;;;;;;8.94;100.00;96278.75;5030902;28;20479;-68
2022/10/31 01:06:47;;;;;;;14.57;6.93;;;;;;;8.93;100.00;96280.56;5030658;28;20018;-67
2022/10/31 01:09:12;;;;;;;14.45;7.30;;;;;;;8.93;100.00;96277.94;5047711;28;20557;-67
2022/10/31 01:11:38;;;;;;;9.25;6.55;;;;;;;8.95;100.00;96276.03;5030965;28;20111;-68
2022/10/31 01:14:03;;;;;;;11.77;6.35;;;;;;;8.99;100.00;96282.72;5030926;28;20045;-68
2022/10/31 01:16:31;;;;;;;15.13;8.45;;;;;;;8.96;100.00;96269.00;5030883;28;20091;-67
2022/10/31 01:18:57;;;;;;;8.93;7.63;;;;;;;8.96;100.00;96271.63;5028682;28;20048;-67
2022/10/31 01:21:25;;;;;;;10.60;6.80;;;;;;;8.95;100.00;96275.19;5031088;28;20017;-66
2022/10/31 01:23:53;;;;;;;12.15;7.70;;;;;;;8.96;100.00;96266.38;5029506;28;20033;-64
2022/10/31 01:26:27;;;;;;;12.85;6.70;;;;;;;8.95;100.00;96265.53;5027930;28;20414;-64
2022/10/31 01:28:55;;;;;;;15.85;6.88;;;;;;;8.94;100.00;96258.59;5030055;28;20014;-64
2022/10/31 01:31:23;;;;;;;11.70;7.60;;;;;;;8.95;100.00;96257.66;5030635;28;20079;-64
2022/10/31 01:33:49;;;;;;;14.20;6.82;;;;;;;8.97;100.00;96257.56;5029803;28;20410;-64
2022/10/31 01:36:21;;;;;;;8.15;6.30;;;;;;;8.99;100.00;96259.09;5033930;28;20033;-64
2022/10/31 01:38:48;;;;;;;8.45;6.90;;;;;;;8.98;100.00;96249.53;5030292;28;20028;-67
2022/10/31 01:41:16;;;;;;;8.82;6.90;;;;;;;8.97;100.00;96255.75;5031221;28;20546;-67
2022/10/31 01:44:02;;;;;;;9.38;6.60;;;;;;;8.94;100.00;96258.59;5028757;28;20040;-67
2022/10/31 01:46:35;;;;;;;13.95;6.93;;;;;;;8.94;100.00;96252.50;5024277;28;20457;-66
2022/10/31 01:49:05;;;;;;;10.63;7.05;;;;;;;8.95;100.00;96256.81;5029764;28;20100;-66
2022/10/31 01:51:36;;;;;;;9.38;6.93;;;;;;;8.97;100.00;96255.75;5030860;28;20036;-66
2022/10/31 01:54:07;;;;;;;9.65;6.47;;;;;;;8.98;100.00;96254.78;5029715;28;20048;-66
2022/10/31 01:56:36;;;;;;;14.50;6.28;;;;;;;9.03;100.00;96257.06;5026441;28;20079;-66
2022/10/31 01:59:05;;;;;;;8.13;6.22;;;;;;;9.02;100.00;96247.50;5031053;28;20049;-66
2022/10/31 02:01:30;;;;;;;11.50;6.10;;;;;;;8.97;100.00;96257.56;5029226;28;20030;-66
2022/10/31 02:03:56;;;;;;;11.88;6.20;;;;;;;8.91;100.00;96258.84;5032180;28;20510;-73
2022/10/31 02:06:32;;;;;;;9.55;6.53;;;;;;;8.88;100.00;96249.41;5030380;28;20017;-73
2022/10/31 02:09:00;;;;;;;9.73;6.18;;;;;;;8.92;100.00;96243.91;5028666;28;20095;-72
2022/10/31 02:11:28;;;;;;;8.73;5.78;;;;;;;8.95;100.00;96238.41;5029866;28;20033;-72
2022/10/31 02:13:54;;;;;;;7.22;5.95;;;;;;;8.98;100.00;96233.78;5029440;28;20033;-72
2022/10/31 02:16:19;;;;;;;13.43;6.50;;;;;;;8.98;100.00;96227.69;5031756;28;20036;-72
2022/10/31 02:18:45;;;;;;;9.30;6.72;;;;;;;8.94;100.00;96231.50;5029172;28;20029;-66
2022/10/31 02:21:19;;;;;;;13.20;6.68;;;;;;;8.91;100.00;96232.59;5028824;28;20070;-67
2022/10/31 02:24:12;;;;;;;7.47;6.40;;;;;;;8.95;100.00;96220.03;5029278;28;20052;-68
2022/10/31 02:26:48;;;;;;;7.10;6.32;;;;;;;8.98;100.00;96219.81;5028010;28;20462;-67
2022/10/31 02:29:44;;;;;;;10.18;6.20;;;;;;;9.00;100.00;96220.53;5029292;28;20021;-68
2022/10/31 02:32:18;;;;;;;7.93;5.90;;;;;;;9.02;100.00;96216.81;5029507;28;20041;-68
2022/10/31 02:34:48;;;;;;;9.55;6.72;;;;;;;9.03;100.00;96212.41;5029125;28;20495;-67
2022/10/31 02:37:43;;;;;;;12.32;6.70;;;;;;;9.04;100.00;96211.47;5028301;28;20057;-68
2022/10/31 02:40:11;;;;;;;8.98;5.68;;;;;;;9.00;100.00;96210.03;5029029;28;20037;-66
2022/10/31 02:42:54;;;;;;;11.05;6.28;;;;;;;8.99;100.00;96200.47;5029627;28;20112;-66
2022/10/31 02:45:31;;;;;;;11.23;6.45;;;;;;;9.00;100.00;96200.34;5028033;28;20483;-66
2022/10/31 02:48:03;;;;;;;12.15;6.75;;;;;;;9.01;100.00;96199.41;5029092;28;20029;-67
2022/10/31 02:50:33;;;;;;;11.25;6.57;;;;;;;8.99;100.00;96201.31;5028629;28;20033;-67
2022/10/31 02:53:00;;;;;;;9.95;5.95;;;;;;;8.97;100.00;96197.16;5029901;28;20021;-66
2022/10/31 02:55:26;;;;;;;12.40;6.78;;;;;;;8.95;100.00;96193.78;5030270;28;20033;-66
2022/10/31 02:57:56;;;;;;;9.30;6.43;;;;;;;8.93;100.00;96191.28;5029661;28;20076;-61
2022/10/31 03:00:22;;;;;;;9.75;5.93;;;;;;;8.93;100.00;96199.16;5029236;28;20028;-67
2022/10/31 03:03:06;;;;;;;13.52;6.72;;;;;;;8.93;100.00;96193.91;5028903;28;20090;-68
2022/10/31 03:05:35;;;;;;;10.95;6.60;;;;;;;8.95;100.00;96185.91;5027158;28;20029;-67
2022/10/31 03:08:08;;;;;;;7.43;5.90;;;;;;;8.92;100.00;96181.75;5032405;28;20108;-67
2022/10/31 03:10:37;;;;;;;6.35;5.43;;;;;;;8.91;100.00;96180.06;5030736;28;20112;-67
2022/10/31 03:13:17;;;;;;;12.10;5.90;;;;;;;8.91;100.00;96179.22;5034044;28;20070;-67
2022/10/31 03:15:51;;;;;;;13.75;6.00;;;;;;;8.86;100.00;96183.03;5033896;28;20402;-68
2022/10/31 03:18:39;;;;;;;9.73;6.05;;;;;;;8.85;100.00;96178.75;5033470;28;20025;-67
2022/10/31 03:21:06;;;;;;;11.02;5.95;;;;;;;8.86;100.00;96183.03;5031723;28;20017;-65
2022/10/31 03:23:34;;;;;;;11.90;6.25;;;;;;;8.84;100.00;96187.59;5028539;28;20025;-64
2022/10/31 03:26:04;;;;;;;11.40;5.82;;;;;;;8.80;100.00;96188.78;5032850;28;20021;-65
2022/10/31 03:28:37;;;;;;;10.57;5.82;;;;;;;8.83;100.00;96192.94;5032090;28;20061;-65
2022/10/31 03:31:05;;;;;;;10.60;6.25;;;;;;;8.80;100.00;96186.16;5033255;28;20029;-65
2022/10/31 03:33:35;;;;;;;7.22;5.50;;;;;;;8.81;100.00;96190.44;5031225;28;20096;-65
2022/10/31 03:36:04;;;;;;;8.60;5.82;;;;;;;8.82;100.00;96194.75;5032483;28;20033;-64
2022/10/31 03:38:31;;;;;;;8.63;5.65;;;;;;;8.81;100.00;96198.31;5032323;28;20037;-73
2022/10/31 03:40:59;;;;;;;10.57;5.72;;;;;;;8.83;100.00;96203.44;5032530;28;20025;-72
2022/10/31 03:43:30;;;;;;;9.57;5.40;;;;;;;8.83;100.00;96203.44;5029642;28;20121;-72
2022/10/31 03:45:56;;;;;;;9.73;5.70;;;;;;;8.81;100.00;96200.94;5032524;28;20676;-72
2022/10/31 03:48:22;;;;;;;12.02;5.57;;;;;;;8.76;100.00;96210.97;5033082;28;20021;-73
2022/10/31 03:50:52;;;;;;;11.35;5.20;;;;;;;8.77;100.00;96204.78;5033379;28;20105;-73
2022/10/31 03:53:26;;;;;;;10.38;5.78;;;;;;;8.80;100.00;96206.31;5034322;28;20584;-73
2022/10/31 03:56:09;;;;;;;7.15;5.22;;;;;;;8.81;100.00;96200.09;5031205;28;20029;-73
2022/10/31 03:59:04;;;;;;;13.52;6.10;;;;;;;8.81;100.00;96211.44;5027691;28;20514;-67
2022/10/31 04:01:32;;;;;;;12.57;6.78;;;;;;;8.80;100.00;96207.16;5026908;28;20422;-67
2022/10/31 04:03:58;;;;;;;9.48;5.75;;;;;;;8.83;100.00;96208.69;5032405;28;20029;-67
2022/10/31 04:06:25;;;;;;;12.65;6.00;;;;;;;8.82;100.00;96207.88;5032384;28;20020;-67
2022/10/31 04:08:59;;;;;;;10.52;6.07;;;;;;;8.79;100.00;96205.50;5032582;28;20021;-66
2022/10/31 04:11:29;;;;;;;8.23;5.70;;;;;;;8.77;100.00;96193.41;5031754;28;20107;-67
2022/10/31 04:13:57;;;;;;;12.32;5.05;;;;;;;8.73;100.00;96198.91;5031628;28;20576;-65
2022/10/31 04:16:24;;;;;;;6.65;5.88;;;;;;;8.72;100.00;96191.13;5034081;28;20029;-74
2022/10/31 04:18:50;;;;;;;6.13;5.18;;;;;;;8.68;100.00;96194.97;5030081;28;20507;-73
2022/10/31 04:21:16;;;;;;;7.68;5.35;;;;;;;8.65;100.00;96192.56;5033418;28;20037;-73
2022/10/31 04:23:41;;;;;;;7.28;5.15;;;;;;;8.63;100.00;96187.47;5032616;28;20029;-73
2022/10/31 04:26:10;;;;;;;9.35;5.95;;;;;;;8.59;100.00;96192.09;5032297;28;20398;-73
2022/10/31 04:28:35;;;;;;;11.38;5.80;;;;;;;8.60;100.00;96179.78;5031855;28;20029;-73
2022/10/31 04:31:01;;;;;;;8.05;5.22;;;;;;;8.60;100.00;96179.78;5031957;28;20026;-73
2022/10/31 04:33:26;;;;;;;5.72;5.13;;;;;;;8.55;100.00;96182.78;5032669;28;20056;-66
2022/10/31 04:35:51;;;;;;;9.45;5.68;;;;;;;8.55;100.00;96182.78;5032900;28;20027;-63
2022/10/31 04:38:17;;;;;;;7.15;5.13;;;;;;;8.56;100.00;96192.34;5033163;28;20095;-63
2022/10/31 04:40:42;;;;;;;11.30;5.35;;;;;;;8.57;100.00;96183.50;5028847;28;20108;-63
2022/10/31 04:43:07;;;;;;;10.85;5.68;;;;;;;8.56;100.00;96179.22;5033207;28;20053;-63
2022/10/31 04:45:33;;;;;;;7.65;5.03;;;;;;;8.55;100.00;96188.03;5031835;28;20033;-63
2022/10/31 04:47:58;;;;;;;8.45;5.32;;;;;;;8.52;100.00;96185.66;5030107;28;20418;-64
2022/10/31 04:50:24;;;;;;;6.47;5.32;;;;;;;8.48;100.00;96180.72;5035620;28;20490;-63
2022/10/31 04:52:49;;;;;;;7.13;5.43;;;;;;;8.43;100.00;96170.56;5032315;28;20500;-67
2022/10/31 04:55:15;;;;;;;8.82;5.15;;;;;;;8.41;100.00;96168.06;5032685;28;20079;-63
2022/10/31 04:57:42;;;;;;;8.13;5.07;;;;;;;8.45;100.00;96166.03;5034172;28;20103;-63
2022/10/31 05:00:09;;;;;;;9.57;4.72;;;;;;;8.42;100.00;96161.88;5031686;28;20029;-63
2022/10/31 05:02:34;;;;;;;10.27;5.15;;;;;;;8.43;100.00;96157.44;5032478;28;20017;-64
2022/10/31 05:05:00;;;;;;;10.45;5.32;;;;;;;8.40;100.00;96153.28;5033398;28;20025;-63
2022/10/31 05:07:25;;;;;;;9.32;5.30;;;;;;;8.35;100.00;96150.16;5032158;28;20458;-63
2022/10/31 05:09:50;;;;;;;11.60;5.35;;;;;;;8.35;100.00;96157.22;5030324;28;20097;-63
2022/10/31 05:12:16;;;;;;;12.90;5.60;;;;;;;8.33;100.00;96146.81;5030853;28;20022;-63
2022/10/31 05:14:41;;;;;;;17.25;11.55;;;;;;;8.28;100.00;96155.03;5032480;28;20057;-65
2022/10/31 05:17:06;;;;;;;14.18;6.10;;;;;;;8.35;100.00;96165.06;5034459;28;20028;-66
2022/10/31 05:19:32;;;;;;;17.88;6.05;;;;;;;8.43;100.00;96170.56;5045883;28;20026;-66
2022/10/31 05:21:57;;;;;;;10.10;6.32;;;;;;;8.49;100.00;96162.22;5030048;28;20049;-65
2022/10/31 05:24:22;;;;;;;11.18;6.57;;;;;;;8.54;100.00;96170.63;5032165;28;20020;-66
2022/10/31 05:26:49;;;;;;;7.35;5.50;;;;;;;8.52;100.00;96172.53;5030855;28;20025;-65
2022/10/31 05:29:14;;;;;;;10.90;6.20;;;;;;;8.52;100.00;96174.31;5030466;28;20025;-66
2022/10/31 05:31:39;;;;;;;9.50;6.10;;;;;;;8.53;100.00;96175.97;5031431;28;20017;-66
2022/10/31 05:34:05;;;;;;;7.95;5.63;;;;;;;8.52;100.00;96187.44;5031306;28;20035;-66
2022/10/31 05:36:30;;;;;;;7.38;5.72;;;;;;;8.54;100.00;96180.28;5031566;28;20075;-66
2022/10/31 05:38:56;;;;;;;6.65;5.53;;;;;;;8.54;100.00;96175.88;5031215;28;20113;-65
2022/10/31 05:41:21;;;;;;;8.98;5.80;;;;;;;8.68;100.00;96179.22;5030304;28;20017;-66
2022/10/31 05:43:46;;;;;;;13.45;5.78;;;;;;;8.60;100.00;96185.03;5030816;28;20125;-65
2022/10/31 05:46:12;;;;;;;14.18;5.40;;;;;;;8.56;100.00;96187.09;5030502;28;20026;-65
2022/10/31 05:48:37;;;;;;;7.00;4.82;;;;;;;8.52;100.00;96190.91;5029237;28;21338;-65
2022/10/31 05:51:03;;;;;;;10.45;5.32;;;;;;;8.49;100.00;96195.50;5031040;28;20056;-68
2022/10/31 05:53:28;;;;;;;16.58;5.60;;;;;;;8.47;100.00;96193.00;5030487;28;20036;-68
2022/10/31 05:55:53;;;;;;;9.52;5.15;;;;;;;8.56;100.00;96194.13;5030419;28;20041;-68
2022/10/31 05:58:19;;;;;;;11.98;6.00;;;;;;;8.57;100.00;96196.63;5029559;28;20154;-67
2022/10/31 06:00:44;;;;;;;12.30;5.18;;;;;;;8.54;100.00;96206.50;5029241;28;20048;-67
2022/10/31 06:03:10;;;;;;;8.70;5.57;;;;;;;8.58;100.00;96211.44;5029884;28;20029;-67
2022/10/31 06:05:35;;;;;;;6.32;5.68;;;;;;;8.68;100.00;96210.72;5028724;28;20061;-68
2022/10/31 06:08:00;;;;;;;9.23;5.22;;;;;;;8.68;100.00;96200.22;5029668;28;20025;-67
2022/10/31 06:10:27;;;;;;;9.27;5.18;;;;;;;8.70;100.00;96214.06;5031180;28;20060;-66
2022/10/31 06:12:52;;;;;;;9.93;5.28;;;;;;;8.76;100.00;96205.72;5030719;28;20092;-64
2022/10/31 06:15:18;;;;;;;11.68;5.20;;;;;;;8.76;100.00;96208.34;5031771;28;20565;-64
2022/10/31 06:17:43;;;;;;;8.23;4.75;;;;;;;8.72;100.00;96210.38;5030439;28;20022;-65
2022/10/31 06:20:10;;;;;;;8.75;4.97;;;;;;;8.72;100.00;96206.88;5029725;28;20025;-65
2022/10/31 06:22:35;;;;;;;10.25;5.78;;;;;;;8.73;100.00;96200.69;5030359;28;20079;-65
2022/10/31 06:25:00;;;;;;;12.20;5.70;;;;;;;8.72;100.00;96202.50;5033012;28;20029;-64
2022/10/31 06:27:26;;;;;;;10.25;6.25;;;;;;;8.72;100.00;96205.13;5029650;28;20037;-64
2022/10/31 06:29:52;;;;;;;9.30;6.10;;;;;;;8.71;100.00;96205.22;5029912;28;20090;-73
2022/10/31 06:32:17;;;;;;;10.50;6.07;;;;;;;8.68;100.00;96210.72;5031468;28;20029;-67
2022/10/31 06:34:44;;;;;;;7.68;6.43;;;;;;;8.71;100.00;96220.97;5028756;28;20029;-65
2022/10/31 06:37:12;;;;;;;7.28;6.20;;;;;;;8.72;100.00;96213.00;5030882;28;20491;-64
2022/10/31 06:39:38;;;;;;;16.42;5.78;;;;;;;8.80;100.00;96204.53;5030380;28;20025;-65
2022/10/31 06:42:03;;;;;;;11.77;6.30;;;;;;;8.74;100.00;96205.00;5032963;28;20013;-64
2022/10/31 06:44:30;;;;;;;10.80;5.78;;;;;;;8.73;100.00;96224.31;5034825;28;20025;-65
2022/10/31 06:46:55;;;;;;;10.35;5.70;;;;;;;8.75;100.00;96206.69;5032857;28;20033;-64
2022/10/31 06:49:20;;;;;;;9.60;5.68;;;;;;;8.80;100.00;96211.56;5033540;28;20030;-66
2022/10/31 06:51:50;;;;;;;10.38;6.53;;;;;;;8.91;100.00;96216.84;5034354;28;20025;-66
2022/10/31 06:54:16;;;;;;;11.05;6.05;;;;;;;8.97;100.00;96216.34;5035377;28;20025;-67
2022/10/31 06:56:41;;;;;;;13.50;5.88;;;;;;;9.00;100.00;96216.09;5033967;28;20033;-66
2022/10/31 06:59:06;;;;;;;6.63;5.70;;;;;;;9.01;100.00;96203.81;5034245;28;20107;-65
2022/10/31 07:01:32;;;;;;;9.38;5.88;;;;;;;9.09;100.00;96204.06;5033027;28;20499;-64
2022/10/31 07:03:57;;;;;;;12.50;5.30;;;;;;;9.16;100.00;96204.41;5033950;28;20094;-65
2022/10/31 07:06:23;;;;;;;11.45;5.40;;;;;;;9.17;100.00;96201.69;5034269;28;20025;-65
2022/10/31 07:08:48;;;;;;;8.18;6.05;;;;;;;9.20;100.00;96195.31;5033168;28;20045;-68
2022/10/31 07:11:14;;;;;;;11.10;6.18;;;;;;;9.24;100.00;96183.63;5032248;28;20067;-63
2022/10/31 07:13:39;;;;;;;11.60;6.40;;;;;;;9.26;100.00;96184.31;5032070;28;20040;-62
2022/10/31 07:16:11;;;;;;;8.30;6.50;;;;;;;9.27;100.00;96190.44;5032092;28;20025;-62
2022/10/31 07:18:37;;;;;;;10.70;6.53;;;;;;;9.31;100.00;96181.34;5026178;28;20522;-62
2022/10/31 07:21:03;;;;;;;10.45;5.43;;;;;;;9.37;100.00;96196.59;5024158;28;20045;-62
2022/10/31 07:23:28;;;;;;;8.25;5.45;;;;;;;9.45;100.00;96188.97;5029835;28;21118;-62
2022/10/31 07:25:57;;;;;;;12.27;5.85;;;;;;;9.51;100.00;96186.78;5029851;28;20068;-66
2022/10/31 07:28:23;;;;;;;10.70;6.45;;;;;;;9.56;100.00;96180.22;5032228;28;20036;-65
2022/10/31 07:30:53;;;;;;;9.13;5.57;;;;;;;9.60;100.00;96186.03;5032994;28;20407;-60
2022/10/31 07:33:18;;;;;;;16.23;7.05;;;;;;;9.75;100.00;96182.19;5033897;28;20518;-61
2022/10/31 07:35:44;;;;;;;10.73;5.70;;;;;;;9.71;100.00;96188.66;5032593;28;20033;-61
2022/10/31 07:38:11;;;;;;;10.32;5.97;;;;;;;9.67;100.00;96179.34;5033507;28;20040;-61
2022/10/31 07:40:37;;;;;;;12.38;5.95;;;;;;;9.65;100.00;96189.16;5032148;28;20029;-61
2022/10/31 07:43:02;;;;;;;10.80;6.35;;;;;;;9.60;100.00;96186.03;5032487;28;20017;-61
2022/10/31 07:45:28;;;;;;;13.55;6.60;;;;;;;9.59;100.00;96184.38;5033581;28;20508;-61
2022/10/31 07:47:54;;;;;;;7.00;5.70;;;;;;;9.53;100.00;96180.47;5033624;28;20037;-66
2022/10/31 07:50:25;;;;;;;12.50;6.20;;;;;;;9.52;100.00;96177.97;5045034;28;20036;-76
2022/10/31 07:53:02;;;;;;;9.02;6.30;;;;;;;9.50;100.00;96185.13;5027591;28;20076;-74
2022/10/31 07:55:30;;;;;;;8.52;5.97;;;;;;;9.54;100.00;96181.28;5033038;28;20060;-75
2022/10/31 07:57:59;;;;;;;12.10;6.28;;;;;;;9.50;100.00;96179.88;5029513;28;20489;-75
2022/10/31 08:00:25;;;;;;;11.07;5.88;;;;;;;9.48;100.00;96193.13;5031053;28;20040;-75
2022/10/31 08:03:01;;;;;;;11.07;6.03;;;;;;;9.43;100.00;96190.88;5033050;28;20017;-75
2022/10/31 08:05:27;;;;;;;12.70;6.55;;;;;;;9.41;100.00;96192.81;5032139;28;20029;-67
2022/10/31 08:07:53;;;;;;;16.20;6.93;;;;;;;9.44;100.00;96202.22;5031512;28;20021;-65
2022/10/31 08:10:19;;;;;;;11.18;6.13;;;;;;;9.46;100.00;96206.41;5033276;28;20104;-64
2022/10/31 08:12:44;;;;;;;9.65;6.00;;;;;;;9.46;100.00;96197.66;5030835;28;20021;-65
2022/10/31 08:15:09;;;;;;;8.63;5.95;;;;;;;9.49;100.00;96205.31;5032553;28;20049;-65
2022/10/31 08:17:36;;;;;;;8.07;5.95;;;;;;;9.55;100.00;96198.72;5032054;28;20029;-64
2022/10/31 08:20:02;;;;;;;12.23;6.65;;;;;;;9.66;100.00;96198.72;5029485;28;20108;-64
2022/10/31 08:22:27;;;;;;;15.77;6.50;;;;;;;9.77;100.00;96187.34;5031514;28;20024;-64
2022/10/31 08:24:53;;;;;;;16.92;8.15;;;;;;;9.94;100.00;96188.56;5030853;28;20022;-64
2022/10/31 08:27:18;;;;;;;8.68;6.93;;;;;;;10.10;100.00;96180.25;5030022;28;20112;-69
2022/10/31 08:29:43;;;;;;;14.40;6.75;;;;;;;10.30;100.00;96196.19;5030877;28;20022;-69
2022/10/31 08:32:09;;;;;;;9.23;5.88;;;;;;;10.47;100.00;96176.38;5031680;28;20033;-69
2022/10/31 08:34:34;;;;;;;14.43;5.45;;;;;;;10.52;100.00;96174.22;5030618;28;20068;-68
2022/10/31 08:36:59;;;;;;;13.20;5.35;;;;;;;10.60;100.00;96169.13;5032244;28;20025;-67
2022/10/31 08:39:25;;;;;;;10.32;5.95;;;;;;;10.58;100.00;96163.16;5032734;28;20028;-68
2022/10/31 08:41:50;;;;;;;7.05;5.07;;;;;;;10.61;100.00;96156.78;5031189;28;20079;-67
2022/10/31 08:44:16;;;;;;;9.70;5.15;;;;;;;10.72;100.00;96155.84;5032586;28;20029;-67
2022/10/31 08:46:41;;;;;;;9.60;4.55;;;;;;;10.83;100.00;96162.81;5031914;28;20029;-74
2022/10/31 08:49:07;;;;;;;8.75;5.60;;;;;;;10.93;100.00;96157.59;5033549;28;20045;-74
2022/10/31 08:51:32;;;;;;;11.05;4.85;;;;;;;10.96;100.00;96152.91;5032390;28;20021;-75
2022/10/31 08:53:57;;;;;;;12.43;4.50;;;;;;;11.04;100.00;96160.97;5031047;28;20036;-75
2022/10/31 08:56:23;;;;;;;13.45;4.45;;;;;;;11.20;100.00;96148.28;5032828;28;20406;-75
2022/10/31 08:58:48;;;;;;;7.10;4.35;;;;;;;11.28;100.00;96146.66;5032903;28;20469;-75
2022/10/31 09:01:14;;;;;;;12.40;4.90;;;;;;;11.37;100.00;96144.16;5047763;28;20600;-76
2022/10/31 09:03:39;;;;;;;6.05;4.88;;;;;;;11.47;100.00;96131.81;5031143;28;20022;-66
2022/10/31 09:06:08;;;;;;;8.63;4.72;;;;;;;11.62;100.00;96134.91;5029573;28;20556;-76
2022/10/31 09:08:34;;;;;;;8.43;4.15;;;;;;;11.77;100.00;96143.25;5030911;28;20033;-75
2022/10/31 09:11:00;;;;;;;5.28;3.80;;;;;;;11.98;100.00;96140.44;5031390;28;20025;-75
2022/10/31 09:13:26;;;;;;;8.38;3.88;;;;;;;12.13;100.00;96134.78;5032534;28;20652;-76
2022/10/31 09:15:51;;;;;;;10.77;4.35;;;;;;;12.06;100.00;96141.59;5030709;28;20869;-76
2022/10/31 09:18:19;;;;;;;10.20;4.35;;;;;;;12.04;100.00;96139.91;5031305;28;20537;-77
2022/10/31 09:20:46;;;;;;;9.18;4.13;;;;;;;12.06;100.00;96136.31;5030443;28;20388;-67
2022/10/31 09:23:14;;;;;;;8.32;4.30;;;;;;;12.02;100.00;96139.22;5032963;28;20010;-64
2022/10/31 09:25:40;;;;;;;9.45;3.92;;;;;;;12.02;100.00;96138.41;5030605;28;20038;-77
2022/10/31 09:28:08;;;;;;;6.75;3.70;;;;;;;12.04;100.00;96142.56;5030466;28;20609;-76
2022/10/31 09:30:35;;;;;;;8.23;4.10;;;;;;;12.14;100.00;96136.44;5026425;28;20033;-76
2022/10/31 09:33:03;;;;;;;12.68;4.10;;;;;;;12.25;100.00;96136.28;5032099;28;20494;-77
2022/10/31 09:35:29;;;;;;;13.70;4.35;;;;;;;12.35;100.00;96135.44;5032187;28;20033;-77
2022/10/31 09:38:04;;;;;;;14.32;4.88;;;;;;;12.46;100.00;96133.47;5031252;28;20104;-77
2022/10/31 09:40:42;;;;;;;11.07;4.97;;;;;;;12.60;100.00;96128.72;5031311;28;20033;-67
2022/10/31 09:43:16;;;;;;;21.13;4.50;;;;;;;12.78;100.00;96134.06;5028498;28;20082;-67
2022/10/31 09:45:41;;;;;;;9.23;4.25;;;;;;;12.99;100.00;96135.66;5030246;28;20041;-75
2022/10/31 09:48:27;;;;;;;7.30;4.00;;;;;;;13.23;98.37;96143.03;5028075;28;20534;-76
2022/10/31 09:51:33;;;;;;;10.15;4.50;;;;;;;13.50;94.94;96132.63;5029814;28;20079;-77
2022/10/31 09:53:58;;;;;;;10.07;4.40;;;;;;;13.68;94.31;96140.56;5029577;28;20117;-77
2022/10/31 09:56:25;;;;;;;3.88;3.20;;;;;;;13.84;93.63;96142.56;5031911;28;20020;-77
2022/10/31 09:58:55;;;;;;;11.77;3.92;;;;;;;13.95;91.53;96137.03;5029911;28;20049;-77
2022/10/31 10:01:41;;;;;;;6.18;4.00;;;;;;;14.07;91.60;96124.38;5032480;28;20021;-77
2022/10/31 10:04:22;;;;;;;5.75;3.50;;;;;;;14.18;88.26;96131.25;5031435;28;20412;-67
2022/10/31 10:06:51;;;;;;;7.13;3.83;;;;;;;14.25;91.28;96132.28;5030094;28;20415;-67
2022/10/31 10:09:24;;;;;;;9.10;3.95;;;;;;;14.30;89.29;96137.97;5031061;28;20021;-66
2022/10/31 10:12:16;;;;;;;7.55;3.45;;;;;;;14.37;84.61;96145.28;5029626;28;20055;-67
2022/10/31 10:15:01;;;;;;;12.43;4.13;;;;;;;14.51;86.23;96142.09;5027046;28;20029;-67
2022/10/31 10:17:43;;;;;;;14.38;3.95;;;;;;;14.65;85.78;96131.88;5026978;28;20081;-67
2022/10/31 10:20:30;;;;;;;5.05;3.45;;;;;;;14.80;86.70;96140.13;5025547;28;20045;-62
2022/10/31 10:23:28;;;;;;;9.45;4.13;;;;;;;14.95;82.72;96135.06;5026624;28;20037;-69
2022/10/31 10:26:18;;;;;;;9.10;3.78;;;;;;;15.31;77.03;96134.88;5025967;28;20037;-69
2022/10/31 10:29:03;;;;;;;10.75;4.13;;;;;;;15.43;77.45;96124.78;5023992;28;20115;-69
2022/10/31 10:31:41;;;;;;;9.07;4.15;;;;;;;15.47;78.51;96124.31;5027440;28;20075;-69
2022/10/31 10:34:34;;;;;;;6.03;3.72;;;;;;;15.67;77.32;96105.44;5027101;28;20036;-69
2022/10/31 10:37:27;;;;;;;6.22;3.80;;;;;;;15.60;80.07;96101.78;5026672;28;20030;-69
2022/10/31 10:40:01;;;;;;;8.85;3.78;;;;;;;15.66;80.18;96101.13;5024032;28;20531;-67
2022/10/31 10:48:08;;;;;;;7.25;3.88;;;;;;;15.75;78.67;96096.66;5027716;28;20044;-65
2022/10/31 10:50:40;;;;;;;9.77;4.20;;;;;;;16.01;78.55;96095.72;5027623;28;20388;-66
2022/10/31 10:53:20;;;;;;;13.00;4.15;;;;;;;16.08;77.01;96103.84;5028331;28;20064;-66
2022/10/31 10:56:18;;;;;;;7.55;3.70;;;;;;;16.06;78.44;96092.56;5028855;28;20030;-64
2022/10/31 10:58:44;;;;;;;7.07;4.45;;;;;;;16.25;79.47;96081.59;5024836;28;20539;-67
2022/10/31 11:01:13;;;;;;;6.18;3.97;;;;;;;16.35;79.75;96078.72;5029819;28;20025;-67
2022/10/31 11:03:39;;;;;;;12.43;3.95;;;;;;;16.63;77.69;96077.53;5026289;28;20025;-67
2022/10/31 11:06:17;;;;;;;10.18;4.93;;;;;;;16.73;77.31;96078.97;5029937;28;20529;-67
2022/10/31 11:08:42;;;;;;;8.98;4.32;;;;;;;16.86;73.65;96078.44;5027378;28;20026;-67
2022/10/31 11:11:25;;;;;;;10.93;4.40;;;;;;;16.69;73.29;96075.00;5029783;28;20402;-67
2022/10/31 11:13:56;;;;;;;7.03;4.22;;;;;;;16.85;73.03;96076.78;5029424;28;20071;-67
2022/10/31 11:16:45;;;;;;;13.68;4.32;;;;;;;16.78;73.19;96075.81;5029519;28;20036;-67
2022/10/31 11:19:20;;;;;;;9.55;3.67;;;;;;;16.74;73.63;96075.31;5030517;28;20075;-64
2022/10/31 11:21:46;;;;;;;;;;;;;;;16.86;71.45;96075.78;5029741;28;20369;-67
2022/10/31 11:24:18;;;;;;;8.18;3.70;;;;;;;16.72;73.49;96071.19;5030875;28;19909;-67
2022/10/31 11:26:46;;;;;;;13.98;4.95;;;;;;;16.75;74.59;96066.34;5029583;28;20098;-67
2022/10/31 11:29:24;;;;;;;10.00;4.20;;;;;;;16.81;73.85;96064.84;5036332;28;20017;-66
2022/10/31 11:31:55;;;;;;;8.75;4.57;;;;;;;16.55;73.43;96065.91;5033443;28;20108;-67
2022/10/31 11:34:30;;;;;;;9.40;4.05;;;;;;;16.80;72.40;96062.34;5034419;28;20160;-66
2022/10/31 11:37:02;;;;;;;9.57;4.03;;;;;;;16.79;74.21;96064.19;5034148;28;20036;-69
2022/10/31 11:39:28;;;;;;;9.63;4.15;;;;;;;16.57;73.68;96053.28;5033642;28;20645;-66
2022/10/31 11:41:54;;;;;;;11.43;4.55;;;;;;;16.76;74.12;96054.72;5032546;28;20506;-66
2022/10/31 11:44:25;;;;;;;9.45;3.88;;;;;;;16.60;74.67;96052.94;5035364;28;20506;-66